sensor_id;sensor_type;location;lat;lon;timestamp;pressure;altitude;pressure_sealevel;temperature;humidity
46782;BME280;32541;46.298;11.506;2023-02-28T00:00:34;89491.03;;;-1.47;70.28
46782;BME280;32541;46.298;11.506;2023-02-28T00:03:00;89489.56;;;-1.48;70.45
46782;BME280;32541;46.298;11.506;2023-02-28T00:05:26;89481.63;;;-1.59;70.63
46782;BME280;32541;46.298;11.506;2023-02-28T00:07:53;89481.66;;;-1.64;70.35
46782;BME280;32541;46.298;11.506;2023-02-28T00:10:25;89485.88;;;-1.69;71.08
46782;BME280;32541;46.298;11.506;2023-02-28T00:12:52;89489.81;;;-1.70;71.29
46782;BME280;32541;46.298;11.506;2023-02-28T00:15:19;89490.81;;;-1.73;71.17
46782;BME280;32541;46.298;11.506;2023-02-28T00:17:45;89486.19;;;-1.78;71.04
46782;BME280;32541;46.298;11.506;2023-02-28T00:20:11;89492.84;;;-1.79;71.16
46782;BME280;32541;46.298;11.506;2023-02-28T00:22:39;89500.41;;;-1.78;71.00
46782;BME280;32541;46.298;11.506;2023-02-28T00:25:06;89496.53;;;-1.82;71.11
46782;BME280;32541;46.298;11.506;2023-02-28T00:27:32;89499.78;;;-1.89;71.35
46782;BME280;32541;46.298;11.506;2023-02-28T00:29:58;89499.78;;;-1.89;71.19
46782;BME280;32541;46.298;11.506;2023-02-28T00:32:23;89505.75;;;-1.96;71.78
46782;BME280;32541;46.298;11.506;2023-02-28T00:34:48;89508.44;;;-1.96;71.63
46782;BME280;32541;46.298;11.506;2023-02-28T00:37:14;89502.63;;;-2.06;71.82
46782;BME280;32541;46.298;11.506;2023-02-28T00:39:40;89507.75;;;-2.02;71.89
46782;BME280;32541;46.298;11.506;2023-02-28T00:42:07;89504.06;;;-2.05;71.84
46782;BME280;32541;46.298;11.506;2023-02-28T00:44:32;89513.56;;;-1.98;72.06
46782;BME280;32541;46.298;11.506;2023-02-28T00:46:58;89508.50;;;-2.07;72.57
46782;BME280;32541;46.298;11.506;2023-02-28T00:49:25;89507.13;;;-2.19;73.19
46782;BME280;32541;46.298;11.506;2023-02-28T00:51:51;89512.28;;;-2.21;73.09
46782;BME280;32541;46.298;11.506;2023-02-28T00:54:17;89514.28;;;-2.28;73.16
46782;BME280;32541;46.298;11.506;2023-02-28T00:56:42;89511.91;;;-2.37;73.71
46782;BME280;32541;46.298;11.506;2023-02-28T00:59:07;89515.28;;;-2.31;73.31
46782;BME280;32541;46.298;11.506;2023-02-28T01:01:33;89511.59;;;-2.28;73.16
46782;BME280;32541;46.298;11.506;2023-02-28T01:03:58;89514.72;;;-2.18;72.78
46782;BME280;32541;46.298;11.506;2023-02-28T01:06:24;89517.03;;;-2.33;73.76
46782;BME280;32541;46.298;11.506;2023-02-28T01:08:49;89522.97;;;-2.46;74.02
46782;BME280;32541;46.298;11.506;2023-02-28T01:11:17;89516.59;;;-2.43;74.44
46782;BME280;32541;46.298;11.506;2023-02-28T01:13:43;89521.75;;;-2.45;74.03
46782;BME280;32541;46.298;11.506;2023-02-28T01:16:09;89518.28;;;-2.40;73.68
46782;BME280;32541;46.298;11.506;2023-02-28T01:18:35;89522.06;;;-2.54;74.45
46782;BME280;32541;46.298;11.506;2023-02-28T01:21:14;89520.88;;;-2.58;74.30
46782;BME280;32541;46.298;11.506;2023-02-28T01:23:40;89519.19;;;-2.61;74.60
46782;BME280;32541;46.298;11.506;2023-02-28T01:26:09;89530.22;;;-2.65;75.10
46782;BME280;32541;46.298;11.506;2023-02-28T01:28:34;89530.47;;;-2.68;75.22
46782;BME280;32541;46.298;11.506;2023-02-28T01:31:00;89526.13;;;-2.77;75.14
46782;BME280;32541;46.298;11.506;2023-02-28T01:33:26;89530.25;;;-2.76;75.01
46782;BME280;32541;46.298;11.506;2023-02-28T01:36:03;89526.78;;;-2.65;74.95
46782;BME280;32541;46.298;11.506;2023-02-28T01:38:28;89526.53;;;-2.62;74.90
46782;BME280;32541;46.298;11.506;2023-02-28T01:40:54;89525.78;;;-2.62;74.55
46782;BME280;32541;46.298;11.506;2023-02-28T01:43:26;89528.75;;;-2.66;74.86
46782;BME280;32541;46.298;11.506;2023-02-28T01:45:54;89530.22;;;-2.65;74.86
46782;BME280;32541;46.298;11.506;2023-02-28T01:48:27;89530.22;;;-2.65;75.21
46782;BME280;32541;46.298;11.506;2023-02-28T01:50:55;89521.38;;;-2.60;75.03
46782;BME280;32541;46.298;11.506;2023-02-28T01:53:27;89527.81;;;-2.74;75.75
46782;BME280;32541;46.298;11.506;2023-02-28T01:55:56;89525.88;;;-2.79;75.96
46782;BME280;32541;46.298;11.506;2023-02-28T01:58:22;89523.63;;;-2.69;75.65
46782;BME280;32541;46.298;11.506;2023-02-28T02:00:48;89525.84;;;-2.73;76.26
46782;BME280;32541;46.298;11.506;2023-02-28T02:03:16;89530.47;;;-2.68;76.13
46782;BME280;32541;46.298;11.506;2023-02-28T02:05:44;89533.41;;;-2.72;76.91
46782;BME280;32541;46.298;11.506;2023-02-28T02:08:16;89530.50;;;-2.74;77.10
46782;BME280;32541;46.298;11.506;2023-02-28T02:10:49;89535.09;;;-2.63;76.53
46782;BME280;32541;46.298;11.506;2023-02-28T02:16:18;89524.88;;;-2.76;77.31
46782;BME280;32541;46.298;11.506;2023-02-28T02:28:04;89525.09;;;-2.68;77.54
46782;BME280;32541;46.298;11.506;2023-02-28T02:41:39;89527.97;;;-2.61;76.91
46782;BME280;32541;46.298;11.506;2023-02-28T02:44:14;89532.94;;;-2.70;77.63
46782;BME280;32541;46.298;11.506;2023-02-28T02:46:44;89536.09;;;-2.72;77.97
46782;BME280;32541;46.298;11.506;2023-02-28T02:49:15;89529.25;;;-2.73;78.24
46782;BME280;32541;46.298;11.506;2023-02-28T02:51:41;89542.72;;;-2.73;78.60
46782;BME280;32541;46.298;11.506;2023-02-28T02:54:12;89533.66;;;-2.70;78.35
46782;BME280;32541;46.298;11.506;2023-02-28T02:56:43;89535.59;;;-2.65;78.68
46782;BME280;32541;46.298;11.506;2023-02-28T02:59:13;89518.91;;;-2.58;78.33
46782;BME280;32541;46.298;11.506;2023-02-28T03:01:41;89528.31;;;-2.40;77.95
46782;BME280;32541;46.298;11.506;2023-02-28T03:04:11;89527.88;;;-2.44;77.61
46782;BME280;32541;46.298;11.506;2023-02-28T03:06:39;89523.75;;;-2.51;78.34
46782;BME280;32541;46.298;11.506;2023-02-28T03:09:05;89525.50;;;-2.53;78.69
46782;BME280;32541;46.298;11.506;2023-02-28T03:11:31;89524.75;;;-2.54;78.50
46782;BME280;32541;46.298;11.506;2023-02-28T03:16:31;89537.69;;;-2.47;78.42
46782;BME280;32541;46.298;11.506;2023-02-28T03:21:50;89527.19;;;-2.50;78.43
46782;BME280;32541;46.298;11.506;2023-02-28T03:24:43;89519.38;;;-2.54;78.77
46782;BME280;32541;46.298;11.506;2023-02-28T03:27:16;89522.53;;;-2.50;78.58
46782;BME280;32541;46.298;11.506;2023-02-28T03:29:51;89526.94;;;-2.52;78.76
46782;BME280;32541;46.298;11.506;2023-02-28T03:32:27;89529.31;;;-2.43;78.20
46782;BME280;32541;46.298;11.506;2023-02-28T03:35:15;89536.66;;;-2.38;78.08
46782;BME280;32541;46.298;11.506;2023-02-28T03:37:48;89527.63;;;-2.41;78.23
46782;BME280;32541;46.298;11.506;2023-02-28T03:40:20;89524.69;;;-2.43;78.62
46782;BME280;32541;46.298;11.506;2023-02-28T03:42:49;89534.50;;;-2.45;79.54
46782;BME280;32541;46.298;11.506;2023-02-28T03:45:21;89534.97;;;-2.41;79.23
46782;BME280;32541;46.298;11.506;2023-02-28T03:48:02;89536.97;;;-2.47;78.81
46782;BME280;32541;46.298;11.506;2023-02-28T03:50:34;89547.38;;;-2.33;78.57
46782;BME280;32541;46.298;11.506;2023-02-28T03:53:20;89543.03;;;-2.41;78.57
46782;BME280;32541;46.298;11.506;2023-02-28T03:55:51;89542.88;;;-2.54;78.82
46782;BME280;32541;46.298;11.506;2023-02-28T03:58:29;89555.13;;;-2.59;79.29
46782;BME280;32541;46.298;11.506;2023-02-28T04:01:04;89551.72;;;-2.59;79.41
46782;BME280;32541;46.298;11.506;2023-02-28T04:03:34;89544.53;;;-2.46;79.39
46782;BME280;32541;46.298;11.506;2023-02-28T04:05:59;89548.69;;;-2.45;79.35
46782;BME280;32541;46.298;11.506;2023-02-28T04:08:25;89545.22;;;-2.40;79.35
46782;BME280;32541;46.298;11.506;2023-02-28T04:10:56;89552.59;;;-2.46;79.61
46782;BME280;32541;46.298;11.506;2023-02-28T04:13:23;89553.09;;;-2.47;79.68
46782;BME280;32541;46.298;11.506;2023-02-28T04:15:49;89556.53;;;-2.47;80.33
46782;BME280;32541;46.298;11.506;2023-02-28T04:18:14;89558.75;;;-2.51;80.60
46782;BME280;32541;46.298;11.506;2023-02-28T04:20:40;89560.22;;;-2.50;80.56
46782;BME280;32541;46.298;11.506;2023-02-28T04:23:05;89558.97;;;-2.49;80.58
46782;BME280;32541;46.298;11.506;2023-02-28T04:25:31;89556.78;;;-2.50;80.50
46782;BME280;32541;46.298;11.506;2023-02-28T04:27:56;89565.31;;;-2.46;80.16
46782;BME280;32541;46.298;11.506;2023-02-28T04:30:21;89568.81;;;-2.57;80.57
46782;BME280;32541;46.298;11.506;2023-02-28T04:32:46;89573.97;;;-2.59;80.55
46782;BME280;32541;46.298;11.506;2023-02-28T04:35:12;89577.41;;;-2.58;80.26
46782;BME280;32541;46.298;11.506;2023-02-28T04:37:37;89574.94;;;-2.56;80.35
46782;BME280;32541;46.298;11.506;2023-02-28T04:40:03;89575.88;;;-2.48;79.68
46782;BME280;32541;46.298;11.506;2023-02-28T04:42:29;89580.00;;;-2.42;79.64
46782;BME280;32541;46.298;11.506;2023-02-28T04:45:01;89577.31;;;-2.42;79.25
46782;BME280;32541;46.298;11.506;2023-02-28T04:47:26;89581.88;;;-2.31;79.11
46782;BME280;32541;46.298;11.506;2023-02-28T04:49:52;89576.53;;;-2.37;79.07
46782;BME280;32541;46.298;11.506;2023-02-28T04:52:17;89583.84;;;-2.32;78.94
46782;BME280;32541;46.298;11.506;2023-02-28T04:54:43;89573.97;;;-2.18;79.08
46782;BME280;32541;46.298;11.506;2023-02-28T04:57:08;89576.94;;;-2.21;78.38
46782;BME280;32541;46.298;11.506;2023-02-28T04:59:33;89580.56;;;-2.19;78.79
46782;BME280;32541;46.298;11.506;2023-02-28T05:01:59;89580.06;;;-2.12;77.88
46782;BME280;32541;46.298;11.506;2023-02-28T05:04:24;89583.97;;;-2.13;77.66
46782;BME280;32541;46.298;11.506;2023-02-28T05:06:49;89586.66;;;-2.13;78.16
46782;BME280;32541;46.298;11.506;2023-02-28T05:09:15;89585.22;;;-2.19;78.18
46782;BME280;32541;46.298;11.506;2023-02-28T05:11:41;89583.53;;;-2.22;78.79
46782;BME280;32541;46.298;11.506;2023-02-28T05:14:12;89582.78;;;-2.17;78.45
46782;BME280;32541;46.298;11.506;2023-02-28T05:16:38;89586.06;;;-2.36;78.77
46782;BME280;32541;46.298;11.506;2023-02-28T05:19:04;89582.66;;;-2.36;79.07
46782;BME280;32541;46.298;11.506;2023-02-28T05:21:31;89587.47;;;-2.23;78.74
46782;BME280;32541;46.298;11.506;2023-02-28T05:23:59;89590.34;;;-2.57;78.60
46782;BME280;32541;46.298;11.506;2023-02-28T05:26:25;89585.75;;;-2.67;79.24
46782;BME280;32541;46.298;11.506;2023-02-28T05:28:51;89578.94;;;-2.74;79.56
46782;BME280;32541;46.298;11.506;2023-02-28T05:31:17;89584.50;;;-2.66;79.60
46782;BME280;32541;46.298;11.506;2023-02-28T05:33:42;89585.97;;;-2.60;79.32
46782;BME280;32541;46.298;11.506;2023-02-28T05:36:08;89579.09;;;-2.61;79.30
46782;BME280;32541;46.298;11.506;2023-02-28T05:38:33;89590.34;;;-2.57;79.07
46782;BME280;32541;46.298;11.506;2023-02-28T05:40:59;89589.34;;;-2.54;79.46
46782;BME280;32541;46.298;11.506;2023-02-28T05:43:24;89592.75;;;-2.48;79.55
46782;BME280;32541;46.298;11.506;2023-02-28T05:45:49;89581.91;;;-2.37;79.45
46782;BME280;32541;46.298;11.506;2023-02-28T05:48:15;89580.91;;;-2.34;79.42
46782;BME280;32541;46.298;11.506;2023-02-28T05:50:40;89579.91;;;-2.31;79.11
46782;BME280;32541;46.298;11.506;2023-02-28T05:53:07;89579.47;;;-2.35;78.98
46782;BME280;32541;46.298;11.506;2023-02-28T05:55:33;89575.94;;;-2.18;80.50
46782;BME280;32541;46.298;11.506;2023-02-28T05:58:01;89585.47;;;-2.17;79.98
46782;BME280;32541;46.298;11.506;2023-02-28T06:00:26;89588.13;;;-2.12;79.03
46782;BME280;32541;46.298;11.506;2023-02-28T06:02:53;89586.97;;;-2.22;79.13
46782;BME280;32541;46.298;11.506;2023-02-28T06:05:21;89592.09;;;-2.18;78.67
46782;BME280;32541;46.298;11.506;2023-02-28T06:07:46;89585.00;;;-2.21;78.88
46782;BME280;32541;46.298;11.506;2023-02-28T06:10:13;89587.91;;;-2.19;78.64
46782;BME280;32541;46.298;11.506;2023-02-28T06:12:39;89584.00;;;-2.18;78.99
46782;BME280;32541;46.298;11.506;2023-02-28T06:15:07;89592.09;;;-2.18;78.87
46782;BME280;32541;46.298;11.506;2023-02-28T06:17:33;89600.69;;;-2.20;79.27
46782;BME280;32541;46.298;11.506;2023-02-28T06:19:58;89601.75;;;-1.99;78.64
46782;BME280;32541;46.298;11.506;2023-02-28T06:22:24;89604.25;;;-2.06;78.00
46782;BME280;32541;46.298;11.506;2023-02-28T06:24:49;89607.22;;;-2.10;78.68
46782;BME280;32541;46.298;11.506;2023-02-28T06:27:15;89610.91;;;-2.13;79.02
46782;BME280;32541;46.298;11.506;2023-02-28T06:29:40;89613.13;;;-2.11;79.17
46782;BME280;32541;46.298;11.506;2023-02-28T06:32:06;89616.06;;;-2.15;78.73
46782;BME280;32541;46.298;11.506;2023-02-28T06:34:31;89625.88;;;-2.17;79.52
46782;BME280;32541;46.298;11.506;2023-02-28T06:36:59;89627.31;;;-2.16;79.64
46782;BME280;32541;46.298;11.506;2023-02-28T06:39:28;89614.84;;;-2.14;80.22
46782;BME280;32541;46.298;11.506;2023-02-28T06:41:53;89612.13;;;-2.08;80.07
46782;BME280;32541;46.298;11.506;2023-02-28T06:44:18;89617.94;;;-2.04;79.84
46782;BME280;32541;46.298;11.506;2023-02-28T06:46:45;89611.81;;;-2.05;79.58
46782;BME280;32541;46.298;11.506;2023-02-28T06:49:11;89612.22;;;-1.90;78.92
46782;BME280;32541;46.298;11.506;2023-02-28T06:51:39;89615.53;;;-1.73;78.18
46782;BME280;32541;46.298;11.506;2023-02-28T06:54:07;89622.56;;;-1.64;77.44
46782;BME280;32541;46.298;11.506;2023-02-28T06:56:35;89620.31;;;-1.60;76.59
46782;BME280;32541;46.298;11.506;2023-02-28T06:59:01;89635.81;;;-1.66;77.16
46782;BME280;32541;46.298;11.506;2023-02-28T07:01:26;89623.94;;;-1.82;77.74
46782;BME280;32541;46.298;11.506;2023-02-28T07:03:54;89631.72;;;-1.73;76.73
46782;BME280;32541;46.298;11.506;2023-02-28T07:06:23;89629.72;;;-1.66;76.18
46782;BME280;32541;46.298;11.506;2023-02-28T07:08:49;89633.63;;;-1.67;76.11
46782;BME280;32541;46.298;11.506;2023-02-28T07:11:15;89628.41;;;-1.60;76.57
46782;BME280;32541;46.298;11.506;2023-02-28T07:13:40;89625.88;;;-1.47;76.57
46782;BME280;32541;46.298;11.506;2023-02-28T07:16:09;89630.63;;;-1.29;75.00
46782;BME280;32541;46.298;11.506;2023-02-28T07:18:35;89630.91;;;-1.08;74.82
46782;BME280;32541;46.298;11.506;2023-02-28T07:21:06;89623.56;;;-1.07;74.01
46782;BME280;32541;46.298;11.506;2023-02-28T07:23:32;89627.09;;;-0.94;73.89
46782;BME280;32541;46.298;11.506;2023-02-28T07:25:57;89625.34;;;-0.91;73.47
46782;BME280;32541;46.298;11.506;2023-02-28T07:28:23;89622.81;;;-0.84;72.53
46782;BME280;32541;46.298;11.506;2023-02-28T07:30:48;89621.97;;;-0.73;73.24
46782;BME280;32541;46.298;11.506;2023-02-28T07:33:13;89629.09;;;-0.51;72.70
46782;BME280;32541;46.298;11.506;2023-02-28T07:35:39;89623.06;;;-0.39;71.96
46782;BME280;32541;46.298;11.506;2023-02-28T07:38:05;89622.84;;;-0.22;71.19
46782;BME280;32541;46.298;11.506;2023-02-28T07:40:33;89621.00;;;0.05;70.51
46782;BME280;32541;46.298;11.506;2023-02-28T07:43:02;89620.25;;;0.73;68.50
46782;BME280;32541;46.298;11.506;2023-02-28T07:45:29;89632.31;;;1.30;65.94
46782;BME280;32541;46.298;11.506;2023-02-28T07:47:55;89621.88;;;1.74;63.38
46782;BME280;32541;46.298;11.506;2023-02-28T07:50:21;89620.38;;;2.46;63.18
46782;BME280;32541;46.298;11.506;2023-02-28T07:52:46;89613.88;;;3.31;62.31
46782;BME280;32541;46.298;11.506;2023-02-28T07:55:12;89614.97;;;3.92;59.08
46782;BME280;32541;46.298;11.506;2023-02-28T07:57:39;89609.44;;;4.64;55.73
46782;BME280;32541;46.298;11.506;2023-02-28T08:00:05;89618.75;;;4.84;55.18
46782;BME280;32541;46.298;11.506;2023-02-28T08:02:31;89613.50;;;5.61;52.17
46782;BME280;32541;46.298;11.506;2023-02-28T08:04:57;89623.66;;;5.08;50.24
46782;BME280;32541;46.298;11.506;2023-02-28T08:07:22;89618.06;;;5.21;52.87
46782;BME280;32541;46.298;11.506;2023-02-28T08:09:47;89621.88;;;5.64;51.96
46782;BME280;32541;46.298;11.506;2023-02-28T08:12:14;89617.69;;;5.63;48.92
46782;BME280;32541;46.298;11.506;2023-02-28T08:14:40;89622.53;;;4.15;51.69
46782;BME280;32541;46.298;11.506;2023-02-28T08:17:05;89628.56;;;3.08;54.92
46782;BME280;32541;46.298;11.506;2023-02-28T08:19:31;89624.31;;;2.99;55.81
46782;BME280;32541;46.298;11.506;2023-02-28T08:21:57;89618.97;;;3.63;53.93
46782;BME280;32541;46.298;11.506;2023-02-28T08:24:23;89618.06;;;4.32;54.84
46782;BME280;32541;46.298;11.506;2023-02-28T08:26:48;89614.06;;;5.15;51.71
46782;BME280;32541;46.298;11.506;2023-02-28T08:29:14;89612.06;;;5.60;50.24
46782;BME280;32541;46.298;11.506;2023-02-28T08:31:39;89604.00;;;6.00;49.00
46782;BME280;32541;46.298;11.506;2023-02-28T08:34:09;89603.06;;;6.60;47.71
46782;BME280;32541;46.298;11.506;2023-02-28T08:36:35;89615.34;;;5.44;49.23
46782;BME280;32541;46.298;11.506;2023-02-28T08:39:01;89619.97;;;3.73;52.43
46782;BME280;32541;46.298;11.506;2023-02-28T08:41:26;89612.63;;;3.61;53.32
46782;BME280;32541;46.298;11.506;2023-02-28T08:43:52;89611.91;;;3.32;55.07
46782;BME280;32541;46.298;11.506;2023-02-28T08:46:19;89605.03;;;3.38;54.14
46782;BME280;32541;46.298;11.506;2023-02-28T08:48:44;89605.66;;;3.80;53.01
46782;BME280;32541;46.298;11.506;2023-02-28T08:51:15;89607.50;;;3.85;53.69
46782;BME280;32541;46.298;11.506;2023-02-28T08:53:44;89598.72;;;3.72;52.79
46782;BME280;32541;46.298;11.506;2023-02-28T08:56:15;89613.38;;;3.69;52.63
46782;BME280;32541;46.298;11.506;2023-02-28T08:58:42;89613.63;;;4.14;52.44
46782;BME280;32541;46.298;11.506;2023-02-28T09:01:16;89612.88;;;4.06;51.64
46782;BME280;32541;46.298;11.506;2023-02-28T09:03:43;89614.22;;;3.84;51.89
46782;BME280;32541;46.298;11.506;2023-02-28T09:06:09;89611.59;;;4.58;52.00
46782;BME280;32541;46.298;11.506;2023-02-28T09:08:36;89611.69;;;5.56;48.84
46782;BME280;32541;46.298;11.506;2023-02-28T09:11:01;89613.16;;;5.42;49.16
46782;BME280;32541;46.298;11.506;2023-02-28T09:13:28;89612.94;;;6.01;49.06
46782;BME280;32541;46.298;11.506;2023-02-28T09:15:54;89605.13;;;6.85;47.37
46782;BME280;32541;46.298;11.506;2023-02-28T09:18:20;89590.88;;;7.68;46.26
46782;BME280;32541;46.298;11.506;2023-02-28T09:20:46;89591.72;;;7.95;43.40
46782;BME280;32541;46.298;11.506;2023-02-28T09:23:12;89583.66;;;7.80;43.18
46782;BME280;32541;46.298;11.506;2023-02-28T09:25:38;89595.81;;;6.55;45.16
46782;BME280;32541;46.298;11.506;2023-02-28T09:28:09;89598.97;;;5.44;47.46
46782;BME280;32541;46.298;11.506;2023-02-28T09:30:34;89607.09;;;4.17;51.80
46782;BME280;32541;46.298;11.506;2023-02-28T09:33:00;89604.56;;;4.93;50.26
46782;BME280;32541;46.298;11.506;2023-02-28T09:35:25;89601.25;;;4.57;49.70
46782;BME280;32541;46.298;11.506;2023-02-28T09:37:52;89614.94;;;3.85;51.33
46782;BME280;32541;46.298;11.506;2023-02-28T09:40:19;89609.00;;;3.09;52.64
46782;BME280;32541;46.298;11.506;2023-02-28T09:42:47;89598.53;;;3.70;52.44
46782;BME280;32541;46.298;11.506;2023-02-28T09:45:22;89602.66;;;4.42;50.47
46782;BME280;32541;46.298;11.506;2023-02-28T09:47:50;89589.53;;;5.07;48.98
46782;BME280;32541;46.298;11.506;2023-02-28T09:52:52;89597.66;;;4.77;49.49
46782;BME280;32541;46.298;11.506;2023-02-28T09:55:25;89607.00;;;3.59;52.21
46782;BME280;32541;46.298;11.506;2023-02-28T09:57:54;89608.84;;;3.35;52.52
46782;BME280;32541;46.298;11.506;2023-02-28T10:00:31;89605.53;;;3.29;52.72
46782;BME280;32541;46.298;11.506;2023-02-28T10:05:40;89597.19;;;4.27;51.27
46782;BME280;32541;46.298;11.506;2023-02-28T10:08:19;89593.00;;;4.26;50.98
46782;BME280;32541;46.298;11.506;2023-02-28T10:10:54;89596.97;;;5.29;50.68
46782;BME280;32541;46.298;11.506;2023-02-28T10:16:18;89600.25;;;4.31;49.82
46782;BME280;32541;46.298;11.506;2023-02-28T10:18:49;89594.69;;;4.52;49.70
46782;BME280;32541;46.298;11.506;2023-02-28T10:21:41;89598.78;;;5.42;49.26
46782;BME280;32541;46.298;11.506;2023-02-28T10:27:26;89591.06;;;7.20;46.67
46782;BME280;32541;46.298;11.506;2023-02-28T10:29:59;89592.81;;;8.34;43.78
46782;BME280;32541;46.298;11.506;2023-02-28T10:32:35;89598.69;;;6.97;45.45
46782;BME280;32541;46.298;11.506;2023-02-28T10:37:37;89597.25;;;6.09;45.60
46782;BME280;32541;46.298;11.506;2023-02-28T10:40:05;89596.22;;;6.44;45.99
46782;BME280;32541;46.298;11.506;2023-02-28T10:42:31;89591.47;;;6.52;45.05
46782;BME280;32541;46.298;11.506;2023-02-28T10:47:34;89595.25;;;6.17;45.11
46782;BME280;32541;46.298;11.506;2023-02-28T10:50:05;89599.69;;;5.14;47.21
46782;BME280;32541;46.298;11.506;2023-02-28T10:52:39;89585.47;;;5.84;45.94
46782;BME280;32541;46.298;11.506;2023-02-28T10:55:19;89596.22;;;6.44;44.61
46782;BME280;32541;46.298;11.506;2023-02-28T10:57:45;89574.47;;;6.61;44.48
46782;BME280;32541;46.298;11.506;2023-02-28T11:00:19;89581.66;;;5.79;45.17
46782;BME280;32541;46.298;11.506;2023-02-28T11:02:47;89583.69;;;5.56;46.27
46782;BME280;32541;46.298;11.506;2023-02-28T11:07:55;89584.16;;;6.55;44.69
46782;BME280;32541;46.298;11.506;2023-02-28T11:10:25;89575.06;;;6.52;44.31
46782;BME280;32541;46.298;11.506;2023-02-28T11:12:55;89573.56;;;7.65;43.92
46782;BME280;32541;46.298;11.506;2023-02-28T11:15:25;89566.84;;;8.35;42.55
46782;BME280;32541;46.298;11.506;2023-02-28T11:17:58;89564.16;;;7.93;40.45
46782;BME280;32541;46.298;11.506;2023-02-28T11:20:27;89575.75;;;6.60;42.29
46782;BME280;32541;46.298;11.506;2023-02-28T11:22:54;89575.50;;;6.41;43.40
46782;BME280;32541;46.298;11.506;2023-02-28T11:25:35;89566.56;;;7.05;42.42
46782;BME280;32541;46.298;11.506;2023-02-28T11:28:04;89561.22;;;7.15;42.17
46782;BME280;32541;46.298;11.506;2023-02-28T11:30:35;89567.25;;;6.81;42.38
46782;BME280;32541;46.298;11.506;2023-02-28T11:33:28;89570.13;;;6.11;43.73
46782;BME280;32541;46.298;11.506;2023-02-28T11:36:04;89565.75;;;6.88;42.82
46782;BME280;32541;46.298;11.506;2023-02-28T11:38:35;89560.97;;;6.96;43.31
46782;BME280;32541;46.298;11.506;2023-02-28T11:46:37;89544.00;;;7.22;41.49
46782;BME280;32541;46.298;11.506;2023-02-28T12:00:29;89531.75;;;7.06;42.35
46782;BME280;32541;46.298;11.506;2023-02-28T12:14:06;89512.38;;;8.22;41.93
46782;BME280;32541;46.298;11.506;2023-02-28T12:27:02;89509.09;;;8.67;39.19
46782;BME280;32541;46.298;11.506;2023-02-28T12:29:34;89500.00;;;7.87;40.84
46782;BME280;32541;46.298;11.506;2023-02-28T12:32:11;89492.28;;;7.93;40.81
46782;BME280;32541;46.298;11.506;2023-02-28T12:34:42;89491.97;;;8.76;39.14
46782;BME280;32541;46.298;11.506;2023-02-28T12:37:31;89490.75;;;8.60;38.17
46782;BME280;32541;46.298;11.506;2023-02-28T12:40:07;89486.84;;;8.02;41.78
46782;BME280;32541;46.298;11.506;2023-02-28T12:42:39;89492.34;;;7.09;41.07
46782;BME280;32541;46.298;11.506;2023-02-28T12:45:24;89484.94;;;7.61;42.08
46782;BME280;32541;46.298;11.506;2023-02-28T12:48:00;89491.59;;;8.36;41.61
46782;BME280;32541;46.298;11.506;2023-02-28T12:50:29;89478.22;;;8.40;40.99
46782;BME280;32541;46.298;11.506;2023-02-28T13:03:46;89477.97;;;7.08;41.79
46782;BME280;32541;46.298;11.506;2023-02-28T13:06:40;89471.72;;;7.84;40.91
46782;BME280;32541;46.298;11.506;2023-02-28T13:09:14;89476.22;;;8.06;39.76
46782;BME280;32541;46.298;11.506;2023-02-28T13:11:51;89462.03;;;8.17;39.71
46782;BME280;32541;46.298;11.506;2023-02-28T13:14:29;89465.34;;;8.16;39.60
46782;BME280;32541;46.298;11.506;2023-02-28T13:19:26;89461.47;;;8.36;39.88
46782;BME280;32541;46.298;11.506;2023-02-28T13:21:53;89453.16;;;7.82;39.74
46782;BME280;32541;46.298;11.506;2023-02-28T13:29:34;89446.19;;;8.16;39.57
46782;BME280;32541;46.298;11.506;2023-02-28T13:34:38;89462.16;;;7.75;40.28
46782;BME280;32541;46.298;11.506;2023-02-28T13:39:57;89449.31;;;8.12;41.49
46782;BME280;32541;46.298;11.506;2023-02-28T14:01:26;89434.25;;;7.60;40.87
46782;BME280;32541;46.298;11.506;2023-02-28T14:06:48;89428.69;;;7.67;40.15
46782;BME280;32541;46.298;11.506;2023-02-28T14:09:36;89444.03;;;7.97;40.05
46782;BME280;32541;46.298;11.506;2023-02-28T14:17:53;89436.41;;;7.78;40.23
46782;BME280;32541;46.298;11.506;2023-02-28T14:20:20;89442.09;;;8.07;40.21
46782;BME280;32541;46.298;11.506;2023-02-28T14:26:19;89430.59;;;7.57;40.22
46782;BME280;32541;46.298;11.506;2023-02-28T14:29:06;89437.59;;;7.85;40.40
46782;BME280;32541;46.298;11.506;2023-02-28T14:31:43;89432.06;;;7.58;40.89
46782;BME280;32541;46.298;11.506;2023-02-28T14:34:25;89428.84;;;7.69;40.90
46782;BME280;32541;46.298;11.506;2023-02-28T14:36:53;89432.41;;;7.62;41.00
46782;BME280;32541;46.298;11.506;2023-02-28T14:39:22;89432.47;;;7.55;41.00
46782;BME280;32541;46.298;11.506;2023-02-28T14:41:49;89434.66;;;7.56;41.55
46782;BME280;32541;46.298;11.506;2023-02-28T14:44:23;89426.28;;;7.71;40.81
46782;BME280;32541;46.298;11.506;2023-02-28T14:46:54;89428.91;;;8.23;40.34
46782;BME280;32541;46.298;11.506;2023-02-28T14:49:36;89420.69;;;8.76;40.83
46782;BME280;32541;46.298;11.506;2023-02-28T14:52:17;89422.09;;;9.04;39.94
46782;BME280;32541;46.298;11.506;2023-02-28T14:54:44;89436.31;;;8.83;38.65
46782;BME280;32541;46.298;11.506;2023-02-28T14:57:31;89422.59;;;8.47;38.40
46782;BME280;32541;46.298;11.506;2023-02-28T15:02:25;89422.19;;;7.63;40.75
46782;BME280;32541;46.298;11.506;2023-02-28T15:04:56;89427.69;;;8.07;40.05
46782;BME280;32541;46.298;11.506;2023-02-28T15:07:22;89427.06;;;7.81;39.95
46782;BME280;32541;46.298;11.506;2023-02-28T15:10:22;89433.81;;;7.63;40.73
46782;BME280;32541;46.298;11.506;2023-02-28T15:15:19;89436.56;;;7.29;41.37
46782;BME280;32541;46.298;11.506;2023-02-28T15:17:50;89444.94;;;7.31;41.45
46782;BME280;32541;46.298;11.506;2023-02-28T15:20:18;89436.81;;;7.23;41.26
46782;BME280;32541;46.298;11.506;2023-02-28T15:22:46;89420.78;;;7.54;41.64
46782;BME280;32541;46.298;11.506;2023-02-28T15:25:15;89420.94;;;7.91;40.55
46782;BME280;32541;46.298;11.506;2023-02-28T15:27:47;89436.38;;;8.13;39.62
46782;BME280;32541;46.298;11.506;2023-02-28T15:30:17;89425.75;;;8.00;40.14